Главная страница
METAR-TAF:

METAR-TAF

Аэропорты :

Яп

Острова Яп, Микронезия

широта: 09-29N, долгота: 138-05E, высота над уровнем моря: 28 м

Текущие метеонаблюдения

Эта сводка был подготовлена 48 минут назад, в 02:50 UTC
Ветер 7 Узел от северный
Температура 29°C
Влажность 79%
Давление 1005 hPa
Видимость: 19.3 км
небольшая облачность на высоте 1600 фута
Рассеянная облачность на высоте 13000 фута
Сплошная облачность на высоте 30000 фута

METAR: PTYA 150250Z 35007KT 12SM FEW016 BKN130 OVC300 29/25 A2968 RMK MDT CU NE SLP052 8/278 T02920249 57003

Время: 13:38 (03:38 UTC)

Прогноз

Эта сводка был подготовлена 4 часа и 15 минут назад, в 23:23 UTC
Прогноз действительный с 15-го 00 UTC до 15-го 24 UTC
Ветер 11 Узел от западно-северо-западный
Видимость: 10 км
небольшая облачность на высоте 1600 фута
Отдельные облака на высоте 3000 фута
Рассеянная облачность на высоте 13000 фута
ливни в окрестностях

TAF: PTYA 142323Z 1500/1524 30011KT P6SM VCSH FEW016 SCT030 BKN130

Метеонаблюдения и прогнозы для более 4000 аэропортов (сводки METAR и TAF).

Имеющиеся станции представлены на карте желтыми и красными точками.

Чтобы увидеть название станции, наведите на нее мышь.

Затем щелкните, чтобы увидеть метеонаблюдения и метеопрогнозы.

Управление картой: чтобы увеличить масштаб, щелкните зеленые кнопки с черным крестиком; чтобы уменьшить масштаб, щелкните зеленую кнопку с тире; для просмотра соседних карт щелкайте зеленые стрелки.


METAR-TAF: